createdAt,value
2023-05-20T00:00:09.786Z,41.96
2023-05-20T00:03:11.725Z,41.82
2023-05-20T00:06:13.558Z,41.85
2023-05-20T00:09:16.994Z,42.03
2023-05-20T00:12:18.720Z,41.85
2023-05-20T00:15:20.326Z,42.03
2023-05-20T00:18:21.945Z,41.91
2023-05-20T00:21:23.491Z,42.00
2023-05-20T00:24:25.532Z,42.03
2023-05-20T00:27:27.327Z,41.92
2023-05-20T00:30:28.939Z,42.02
2023-05-20T00:33:31.148Z,42.07
2023-05-20T00:36:32.750Z,42.09
2023-05-20T00:39:34.329Z,42.01
2023-05-20T00:42:35.951Z,42.07
2023-05-20T00:45:38.241Z,41.93
2023-05-20T00:48:42.474Z,42.10
2023-05-20T00:51:44.162Z,42.14
2023-05-20T00:54:46.204Z,42.07
2023-05-20T00:57:49.549Z,41.98
2023-05-20T01:00:51.724Z,42.09
2023-05-20T01:03:53.462Z,42.15
2023-05-20T01:06:55.903Z,42.11
2023-05-20T01:09:57.705Z,42.03
2023-05-20T01:13:05.442Z,42.12
2023-05-20T01:16:09.165Z,42.13
2023-05-20T01:19:24.981Z,42.22
2023-05-20T01:22:30.055Z,42.12
2023-05-20T01:25:31.699Z,42.17
2023-05-20T01:28:35.948Z,42.29
2023-05-20T01:31:38.980Z,42.27
2023-05-20T01:34:42.011Z,42.37
2023-05-20T01:37:44.438Z,42.39
2023-05-20T01:40:47.285Z,42.34
2023-05-20T01:43:48.951Z,42.43
2023-05-20T01:46:50.978Z,42.29
2023-05-20T01:49:54.245Z,42.47
2023-05-20T01:52:56.031Z,42.41
2023-05-20T01:55:57.637Z,42.35
2023-05-20T01:58:59.245Z,42.28
2023-05-20T02:02:00.883Z,42.47
2023-05-20T02:05:03.005Z,42.41
2023-05-20T02:08:04.868Z,42.54
2023-05-20T02:11:06.483Z,42.53
2023-05-20T02:14:08.103Z,42.45
2023-05-20T02:17:09.702Z,42.48
2023-05-20T02:20:11.771Z,42.66
2023-05-20T02:23:13.415Z,42.64
2023-05-20T02:26:15.011Z,42.64
2023-05-20T02:29:16.977Z,42.58
2023-05-20T02:32:20.763Z,42.65
2023-05-20T02:35:22.379Z,42.74
2023-05-20T02:38:24.667Z,42.54
2023-05-20T02:41:26.235Z,42.59
2023-05-20T02:44:27.826Z,42.72
2023-05-20T02:47:29.546Z,42.55
2023-05-20T02:50:31.380Z,42.79
2023-05-20T02:53:33.031Z,42.63
2023-05-20T02:56:34.666Z,42.79
2023-05-20T02:59:36.494Z,42.77
2023-05-20T03:02:38.187Z,42.79
2023-05-20T03:05:42.439Z,42.76
2023-05-20T03:08:44.055Z,42.90
2023-05-20T03:11:47.678Z,42.82
2023-05-20T03:14:49.259Z,42.91
2023-05-20T03:17:51.034Z,42.87
2023-05-20T03:20:52.733Z,42.90
2023-05-20T03:23:54.340Z,42.95
2023-05-20T03:26:56.175Z,43.02
2023-05-20T03:29:57.996Z,43.00
2023-05-20T03:32:59.859Z,43.08
2023-05-20T03:36:01.725Z,42.92
2023-05-20T03:39:04.471Z,42.98
2023-05-20T03:42:06.211Z,42.96
2023-05-20T03:45:08.360Z,43.11
2023-05-20T03:48:10.001Z,43.08
2023-05-20T03:51:11.600Z,43.04
2023-05-20T03:54:13.202Z,43.01
2023-05-20T03:57:14.844Z,43.07
2023-05-20T04:00:17.595Z,43.15
2023-05-20T04:03:19.344Z,43.23
2023-05-20T04:06:22.604Z,43.17
2023-05-20T04:09:24.486Z,43.07
2023-05-20T04:12:30.637Z,43.29
2023-05-20T04:15:36.137Z,43.19
2023-05-20T04:18:39.262Z,43.31
2023-05-20T04:21:43.121Z,43.35
2023-05-20T04:24:46.133Z,43.31
2023-05-20T04:27:48.384Z,43.38
2023-05-20T04:30:50.219Z,43.19
2023-05-20T04:33:52.098Z,43.48
2023-05-20T04:36:53.749Z,43.46
2023-05-20T04:39:55.442Z,43.13
2023-05-20T04:43:00.056Z,43.37
2023-05-20T04:46:01.692Z,43.29
2023-05-20T04:49:04.621Z,43.31
2023-05-20T04:52:06.394Z,43.27
2023-05-20T04:55:11.963Z,43.40
2023-05-20T04:58:17.488Z,43.54
2023-05-20T05:01:19.332Z,43.48
2023-05-20T05:04:21.055Z,43.62
2023-05-20T05:07:22.741Z,43.74
2023-05-20T05:10:25.261Z,43.74
2023-05-20T05:13:26.893Z,43.63
2023-05-20T05:16:28.620Z,43.86
2023-05-20T05:19:30.290Z,43.95
2023-05-20T05:22:32.013Z,43.88
2023-05-20T05:25:33.788Z,43.79
2023-05-20T05:28:35.620Z,43.78
2023-05-20T05:31:37.216Z,44.03
2023-05-20T05:34:38.861Z,43.94
2023-05-20T05:37:40.835Z,43.76
2023-05-20T05:40:42.406Z,43.91
2023-05-20T05:43:44.047Z,43.92
2023-05-20T05:46:45.790Z,43.88
2023-05-20T05:49:47.948Z,43.84
2023-05-20T05:52:49.626Z,44.05
2023-05-20T05:55:51.250Z,43.92
2023-05-20T05:58:52.932Z,43.96
2023-05-20T06:01:54.539Z,43.92
2023-05-20T06:04:56.185Z,43.92
2023-05-20T06:07:57.841Z,44.06
2023-05-20T06:10:59.479Z,44.12
2023-05-20T06:14:01.956Z,43.99
2023-05-20T06:17:04.498Z,44.11
2023-05-20T06:20:07.594Z,43.97
2023-05-20T06:23:09.211Z,44.17
2023-05-20T06:26:10.904Z,44.18
2023-05-20T06:29:12.451Z,43.95
2023-05-20T06:32:14.054Z,44.08
2023-05-20T06:35:16.028Z,44.04
2023-05-20T06:38:17.665Z,43.99
2023-05-20T06:41:19.315Z,44.05
2023-05-20T06:44:20.989Z,43.92
2023-05-20T06:47:22.631Z,44.15
2023-05-20T06:50:25.062Z,44.12
2023-05-20T06:53:26.723Z,44.11
2023-05-20T06:56:28.395Z,44.03
2023-05-20T06:59:30.671Z,44.11
2023-05-20T07:02:34.057Z,44.04
2023-05-20T07:05:36.409Z,44.14
2023-05-20T07:08:38.624Z,43.96
2023-05-20T07:11:41.015Z,44.09
2023-05-20T07:14:43.774Z,44.17
2023-05-20T07:17:46.169Z,44.02
2023-05-20T07:20:49.518Z,44.08
2023-05-20T07:23:51.609Z,44.09
2023-05-20T07:26:53.381Z,44.02
2023-05-20T07:29:55.673Z,44.11
2023-05-20T07:32:58.393Z,44.17
2023-05-20T07:36:00.231Z,44.05
2023-05-20T07:39:05.732Z,44.00
2023-05-20T07:42:10.313Z,44.27
2023-05-20T07:45:12.037Z,44.01
2023-05-20T07:48:13.757Z,43.91
2023-05-20T07:51:15.373Z,43.97
2023-05-20T07:54:17.054Z,44.00
2023-05-20T07:57:18.619Z,43.96
2023-05-20T08:00:20.746Z,44.37
2023-05-20T08:03:22.895Z,44.09
2023-05-20T08:06:25.799Z,43.95
2023-05-20T08:09:28.413Z,43.93
2023-05-20T08:12:29.978Z,43.95
2023-05-20T08:15:31.740Z,44.00
2023-05-20T08:18:36.589Z,44.11
2023-05-20T08:21:38.558Z,44.07
2023-05-20T08:24:40.186Z,43.98
2023-05-20T08:27:41.987Z,44.19
2023-05-20T08:30:43.622Z,44.11
2023-05-20T08:33:45.218Z,44.04
2023-05-20T08:36:47.206Z,44.14
2023-05-20T08:39:50.052Z,43.95
2023-05-20T08:42:54.464Z,43.98
2023-05-20T08:45:56.760Z,43.98
2023-05-20T08:48:59.706Z,43.76
2023-05-20T08:52:01.607Z,43.99
2023-05-20T08:55:04.864Z,43.99
2023-05-20T08:58:07.147Z,43.51
2023-05-20T09:01:08.861Z,43.62
2023-05-20T09:04:10.499Z,43.63
2023-05-20T09:07:12.262Z,43.53
2023-05-20T09:10:14.145Z,43.67
2023-05-20T09:13:15.710Z,43.71
2023-05-20T09:16:17.336Z,43.36
2023-05-20T09:19:24.317Z,43.24
2023-05-20T09:22:28.374Z,43.18
2023-05-20T09:25:30.255Z,43.27
2023-05-20T09:28:31.877Z,43.10
2023-05-20T09:31:34.557Z,43.17
2023-05-20T09:34:36.215Z,42.84
2023-05-20T09:37:38.789Z,43.02
2023-05-20T09:40:44.139Z,42.76
2023-05-20T09:43:45.795Z,42.85
2023-05-20T09:46:48.882Z,42.64
2023-05-20T09:49:52.692Z,42.33
2023-05-20T09:52:55.420Z,42.42
2023-05-20T09:55:58.637Z,42.40
2023-05-20T09:59:02.552Z,42.45
2023-05-20T10:02:06.522Z,42.35
2023-05-20T10:05:14.259Z,42.17
2023-05-20T10:08:22.454Z,42.30
2023-05-20T10:11:42.162Z,42.31
2023-05-20T10:14:49.372Z,42.20
2023-05-20T10:17:59.707Z,42.12
2023-05-20T10:21:01.466Z,42.11
2023-05-20T10:24:08.260Z,42.20
2023-05-20T10:27:15.781Z,42.22
2023-05-20T10:30:22.083Z,42.22
2023-05-20T10:33:23.768Z,42.35
2023-05-20T10:36:31.492Z,42.20
2023-05-20T10:39:34.689Z,42.30
2023-05-20T10:42:36.367Z,42.21
2023-05-20T10:45:51.766Z,42.02
2023-05-20T10:48:53.543Z,41.88
2023-05-20T10:51:55.653Z,41.73
2023-05-20T10:54:59.562Z,41.68
2023-05-20T10:58:01.624Z,41.63
2023-05-20T11:01:03.610Z,41.67
2023-05-20T11:04:06.744Z,41.48
2023-05-20T11:07:08.485Z,41.52
2023-05-20T11:10:11.069Z,41.59
2023-05-20T11:13:14.208Z,41.42
2023-05-20T11:16:16.005Z,41.13
2023-05-20T11:19:19.047Z,41.34
2023-05-20T11:22:20.781Z,41.08
2023-05-20T11:25:26.118Z,40.95
2023-05-20T11:28:27.734Z,41.05
2023-05-20T11:31:29.351Z,40.83
2023-05-20T11:34:40.646Z,40.91
2023-05-20T11:37:43.332Z,40.91
2023-05-20T11:40:50.879Z,40.91
2023-05-20T11:44:01.013Z,41.17
2023-05-20T11:47:04.142Z,41.40
2023-05-20T11:50:07.064Z,41.21
2023-05-20T11:53:10.614Z,41.40
2023-05-20T11:56:14.627Z,41.28
2023-05-20T11:59:16.187Z,41.64
2023-05-20T12:02:17.850Z,41.28
2023-05-20T12:05:19.670Z,41.29
2023-05-20T12:08:21.357Z,41.31
2023-05-20T12:11:23.076Z,41.36
2023-05-20T12:14:24.684Z,41.19
2023-05-20T12:17:26.282Z,41.15
2023-05-20T12:20:27.947Z,41.28
2023-05-20T12:23:33.956Z,41.27
2023-05-20T12:26:36.053Z,41.34
2023-05-20T12:29:37.694Z,41.33
2023-05-20T12:32:39.359Z,41.49
2023-05-20T12:35:42.915Z,41.48
2023-05-20T12:38:44.544Z,41.28
2023-05-20T12:41:46.128Z,41.35
2023-05-20T12:44:47.734Z,41.08
2023-05-20T12:47:49.459Z,41.40
2023-05-20T12:50:51.080Z,41.41
2023-05-20T12:53:52.658Z,41.39
2023-05-20T12:56:55.031Z,41.38
2023-05-20T12:59:56.744Z,41.48
2023-05-20T13:02:58.412Z,41.29
2023-05-20T13:06:00.209Z,41.37
2023-05-20T13:09:01.920Z,41.43
2023-05-20T13:12:04.173Z,41.31
2023-05-20T13:15:06.691Z,41.31
2023-05-20T13:18:10.777Z,41.28
2023-05-20T13:21:12.757Z,41.33
2023-05-20T13:24:15.295Z,41.34
2023-05-20T13:27:17.724Z,41.39
2023-05-20T13:30:19.612Z,41.28
2023-05-20T13:33:23.501Z,41.31
2023-05-20T13:36:25.938Z,41.60
2023-05-20T13:39:27.849Z,41.45
2023-05-20T13:42:30.409Z,41.46
2023-05-20T13:45:32.057Z,41.70
2023-05-20T13:48:33.763Z,41.62
2023-05-20T13:51:35.857Z,41.56
2023-05-20T13:54:37.581Z,41.44
2023-05-20T13:57:39.167Z,41.39
2023-05-20T14:00:41.328Z,41.50
2023-05-20T14:03:43.081Z,41.52
2023-05-20T14:06:44.813Z,41.38
2023-05-20T14:09:46.419Z,41.51
2023-05-20T14:12:48.333Z,41.39
2023-05-20T14:15:50.935Z,41.61
2023-05-20T14:18:52.650Z,41.57
2023-05-20T14:21:54.489Z,41.55
2023-05-20T14:24:56.407Z,41.45
2023-05-20T14:27:57.988Z,41.57
2023-05-20T14:30:59.579Z,41.63
2023-05-20T14:34:01.232Z,41.70
2023-05-20T14:37:07.966Z,41.58
2023-05-20T14:40:09.964Z,41.54
2023-05-20T14:43:11.526Z,41.54
2023-05-20T14:46:13.241Z,41.59
2023-05-20T14:49:14.822Z,41.51
2023-05-20T14:52:17.509Z,41.67
2023-05-20T14:55:19.109Z,41.52
2023-05-20T14:58:20.716Z,41.66
2023-05-20T15:01:22.392Z,41.63
2023-05-20T15:04:24.015Z,41.59
2023-05-20T15:07:26.428Z,41.67
2023-05-20T15:10:28.032Z,41.65
2023-05-20T15:13:29.683Z,41.55
2023-05-20T15:16:31.344Z,41.61
2023-05-20T15:19:33.014Z,41.63
2023-05-20T15:22:34.683Z,41.64
2023-05-20T15:25:36.665Z,41.72
2023-05-20T15:28:39.617Z,41.79
2023-05-20T15:31:41.220Z,41.79
2023-05-20T15:34:43.622Z,41.74
2023-05-20T15:37:45.245Z,41.78
2023-05-20T15:40:47.494Z,42.00
2023-05-20T15:43:49.201Z,42.05
2023-05-20T15:46:51.429Z,41.92
2023-05-20T15:49:54.537Z,41.96
2023-05-20T15:52:56.522Z,41.83
2023-05-20T15:55:59.802Z,41.92
2023-05-20T15:59:01.704Z,42.03
2023-05-20T16:02:03.364Z,41.92
2023-05-20T16:05:05.431Z,41.89
2023-05-20T16:08:07.024Z,41.96
2023-05-20T16:11:09.292Z,41.93
2023-05-20T16:14:10.928Z,41.95
2023-05-20T16:17:12.858Z,41.96
2023-05-20T16:20:14.505Z,41.88
2023-05-20T16:23:16.155Z,42.09
2023-05-20T16:26:17.740Z,42.00
2023-05-20T16:29:19.640Z,41.95
2023-05-20T16:32:24.060Z,42.29
2023-05-20T16:35:25.826Z,41.98
2023-05-20T16:38:27.498Z,42.02
2023-05-20T16:41:29.092Z,42.21
2023-05-20T16:44:30.935Z,42.32
2023-05-20T16:47:33.095Z,42.18
2023-05-20T16:50:34.842Z,42.47
2023-05-20T16:53:37.616Z,42.32
2023-05-20T16:56:39.242Z,42.45
2023-05-20T16:59:41.104Z,42.40
2023-05-20T17:02:42.744Z,42.21
2023-05-20T17:05:44.398Z,42.20
2023-05-20T17:08:46.194Z,42.39
2023-05-20T17:11:47.799Z,42.18
2023-05-20T17:14:49.412Z,42.28
2023-05-20T17:17:51.383Z,42.37
2023-05-20T17:20:53.170Z,42.23
2023-05-20T17:23:54.720Z,42.34
2023-05-20T17:26:56.311Z,42.38
2023-05-20T17:29:59.220Z,42.46
2023-05-20T17:33:01.217Z,42.27
2023-05-20T17:36:03.222Z,42.67
2023-05-20T17:39:04.805Z,42.68
2023-05-20T17:42:06.368Z,42.37
2023-05-20T17:45:08.499Z,42.63
2023-05-20T17:48:11.749Z,42.73
2023-05-20T17:51:13.691Z,42.54
2023-05-20T17:54:15.518Z,42.38
2023-05-20T17:57:17.457Z,42.68
2023-05-20T18:00:21.486Z,42.76
2023-05-20T18:03:23.245Z,42.67
2023-05-20T18:06:26.500Z,42.59
2023-05-20T18:09:28.105Z,42.67
2023-05-20T18:12:29.672Z,42.77
2023-05-20T18:15:31.566Z,42.87
2023-05-20T18:18:33.143Z,42.82
2023-05-20T18:21:35.628Z,43.04
2023-05-20T18:24:37.472Z,42.73
2023-05-20T18:27:39.990Z,42.78
2023-05-20T18:30:41.567Z,43.02
2023-05-20T18:33:43.191Z,42.89
2023-05-20T18:36:45.098Z,43.14
2023-05-20T18:39:46.783Z,42.88
2023-05-20T18:42:48.373Z,42.87
2023-05-20T18:45:50.171Z,43.34
2023-05-20T18:48:51.826Z,43.40
2023-05-20T18:51:53.396Z,43.27
2023-05-20T18:54:55.002Z,43.23
2023-05-20T18:57:56.572Z,43.42
2023-05-20T19:00:58.175Z,43.18
2023-05-20T19:03:59.762Z,43.27
2023-05-20T19:07:01.380Z,43.43
2023-05-20T19:10:03.590Z,43.41
2023-05-20T19:13:05.159Z,43.43
2023-05-20T19:16:07.115Z,43.43
2023-05-20T19:19:08.744Z,43.51
2023-05-20T19:22:10.886Z,43.51
2023-05-20T19:25:12.632Z,43.50
2023-05-20T19:28:14.497Z,43.62
2023-05-20T19:31:21.174Z,43.55
2023-05-20T19:34:23.797Z,43.66
2023-05-20T19:37:25.464Z,43.73
2023-05-20T19:40:27.068Z,43.87
2023-05-20T19:43:30.496Z,43.63
2023-05-20T19:46:32.402Z,43.81
2023-05-20T19:49:34.136Z,43.60
2023-05-20T19:52:35.890Z,43.58
2023-05-20T19:55:38.715Z,43.76
2023-05-20T19:58:40.539Z,43.75
2023-05-20T20:01:43.181Z,43.65
2023-05-20T20:04:44.839Z,43.80
2023-05-20T20:07:47.992Z,43.95
2023-05-20T20:10:49.881Z,43.74
2023-05-20T20:13:51.557Z,44.04
2023-05-20T20:16:54.604Z,44.10
2023-05-20T20:19:56.180Z,43.81
2023-05-20T20:22:57.873Z,43.87
2023-05-20T20:25:59.579Z,43.83
2023-05-20T20:29:01.156Z,43.82
2023-05-20T20:32:03.806Z,43.87
2023-05-20T20:35:06.105Z,43.99
2023-05-20T20:38:10.491Z,44.22
2023-05-20T20:41:12.171Z,44.15
2023-05-20T20:44:17.110Z,44.29
2023-05-20T20:47:19.261Z,44.08
2023-05-20T20:50:21.668Z,44.17
2023-05-20T20:53:23.301Z,44.22
2023-05-20T20:56:25.742Z,44.20
2023-05-20T20:59:27.324Z,44.69
2023-05-20T21:02:28.933Z,44.69
2023-05-20T21:05:30.571Z,44.64
2023-05-20T21:08:32.218Z,44.73
2023-05-20T21:11:36.142Z,44.53
2023-05-20T21:14:37.750Z,44.64
2023-05-20T21:17:39.393Z,44.88
2023-05-20T21:20:40.973Z,44.86
2023-05-20T21:23:42.531Z,45.10
2023-05-20T21:26:44.105Z,44.95
2023-05-20T21:29:45.650Z,45.05
2023-05-20T21:32:47.373Z,44.77
2023-05-20T21:35:49.033Z,44.76
2023-05-20T21:38:50.843Z,45.00
2023-05-20T21:41:52.447Z,45.12
2023-05-20T21:44:54.042Z,44.90
2023-05-20T21:47:55.773Z,44.85
2023-05-20T21:50:57.401Z,45.15
2023-05-20T21:53:58.978Z,45.21
2023-05-20T21:57:02.582Z,45.23
2023-05-20T22:00:09.985Z,45.38
2023-05-20T22:03:13.122Z,45.03
2023-05-20T22:06:16.083Z,45.12
2023-05-20T22:09:17.703Z,45.44
2023-05-20T22:12:20.653Z,45.22
2023-05-20T22:15:23.011Z,45.47
2023-05-20T22:18:24.670Z,45.25
2023-05-20T22:21:26.567Z,45.34
2023-05-20T22:24:28.202Z,45.43
2023-05-20T22:27:29.877Z,45.50
2023-05-20T22:30:31.523Z,45.43
2023-05-20T22:33:33.067Z,45.57
2023-05-20T22:36:36.347Z,45.27
2023-05-20T22:39:38.900Z,45.29
2023-05-20T22:42:40.734Z,45.54
2023-05-20T22:45:42.512Z,45.39
2023-05-20T22:48:44.601Z,45.75
2023-05-20T22:51:46.174Z,45.79
2023-05-20T22:54:47.760Z,45.64
2023-05-20T22:57:49.332Z,45.66
2023-05-20T23:00:51.102Z,45.73
2023-05-20T23:03:53.801Z,46.00
2023-05-20T23:06:56.757Z,45.86
2023-05-20T23:09:59.482Z,45.76
2023-05-20T23:13:01.036Z,45.78
2023-05-20T23:16:05.538Z,45.87
2023-05-20T23:19:07.310Z,45.88
2023-05-20T23:22:08.886Z,45.93
2023-05-20T23:25:10.577Z,46.15
2023-05-20T23:28:12.172Z,46.27
2023-05-20T23:31:14.760Z,45.99
2023-05-20T23:34:16.686Z,46.06
2023-05-20T23:37:18.280Z,46.07
2023-05-20T23:40:19.878Z,45.99
2023-05-20T23:43:21.444Z,46.28
2023-05-20T23:46:23.111Z,46.11
2023-05-20T23:49:27.301Z,46.35
2023-05-20T23:52:29.016Z,46.24
2023-05-20T23:55:31.839Z,46.44
2023-05-20T23:58:34.275Z,46.44
